createdAt,value
2022-08-09T00:00:35.033Z,100981.31
2022-08-09T00:04:05.590Z,100980.91
2022-08-09T00:06:17.699Z,100981.31
2022-08-09T00:08:51.878Z,100986.06
2022-08-09T00:11:24.409Z,100981.28
2022-08-09T00:13:52.755Z,100980.50
2022-08-09T00:16:26.292Z,100975.72
2022-08-09T00:19:09.484Z,100979.69
2022-08-09T00:21:43.247Z,100974.13
2022-08-09T00:24:24.343Z,100980.09
2022-08-09T00:26:52.372Z,100979.72
2022-08-09T00:30:16.179Z,100977.31
2022-08-09T00:32:07.044Z,100977.69
2022-08-09T00:34:34.205Z,100982.47
2022-08-09T00:37:02.259Z,100982.06
2022-08-09T00:40:13.534Z,100984.84
2022-08-09T00:44:16.635Z,100989.63
2022-08-09T00:45:16.043Z,100983.66
2022-08-09T00:47:45.434Z,100989.63
2022-08-09T00:50:14.437Z,100992.00
2022-08-09T00:52:42.373Z,100976.50
2022-08-09T00:55:32.956Z,100973.72
2022-08-09T00:57:59.420Z,100982.44
2022-08-09T01:00:27.762Z,100981.66
2022-08-09T01:03:04.228Z,100976.09
2022-08-09T01:05:57.513Z,100966.94
2022-08-09T01:08:48.895Z,100975.28
2022-08-09T01:11:55.443Z,100975.72
2022-08-09T01:14:55.372Z,100969.31
2022-08-09T01:17:40.419Z,100979.66
2022-08-09T01:20:22.017Z,100971.72
2022-08-09T01:24:01.259Z,100972.88
2022-08-09T01:26:19.116Z,100977.66
2022-08-09T01:28:50.852Z,100980.84
2022-08-09T01:32:28.103Z,100986.44
2022-08-09T01:34:13.416Z,100979.66
2022-08-09T01:36:45.603Z,100984.44
2022-08-09T01:39:16.727Z,100988.00
2022-08-09T01:41:59.922Z,100986.00
2022-08-09T01:44:30.817Z,100990.78
2022-08-09T01:47:02.956Z,101003.50
2022-08-09T01:49:39.180Z,100994.75
2022-08-09T01:52:15.649Z,100995.56
2022-08-09T01:54:47.428Z,100989.16
2022-08-09T01:57:22.959Z,100994.75
2022-08-09T02:00:00.162Z,100993.94
2022-08-09T02:02:45.413Z,100995.91
2022-08-09T02:05:16.255Z,100992.34
2022-08-09T02:08:40.610Z,100992.72
2022-08-09T02:10:50.849Z,100991.16
2022-08-09T02:13:21.982Z,100995.53
2022-08-09T02:15:56.406Z,100989.56
2022-08-09T02:18:29.219Z,100993.16
2022-08-09T02:20:58.819Z,100984.38
2022-08-09T02:23:42.693Z,100981.22
2022-08-09T02:26:24.712Z,100984.78
2022-08-09T02:29:00.573Z,100980.44
2022-08-09T02:31:34.266Z,100974.84
2022-08-09T02:34:40.712Z,100979.63
2022-08-09T02:37:17.991Z,100982.41
2022-08-09T02:39:55.243Z,100986.78
2022-08-09T02:42:34.124Z,100982.00
2022-08-09T02:45:26.514Z,100976.81
2022-08-09T02:47:58.784Z,100987.94
2022-08-09T02:50:33.618Z,100980.41
2022-08-09T02:53:05.392Z,100985.56
2022-08-09T02:55:46.404Z,100980.38
2022-08-09T02:58:36.432Z,100970.44
2022-08-09T03:01:08.332Z,100966.09
2022-08-09T03:04:17.258Z,100974.03
2022-08-09T03:06:29.024Z,100976.81
2022-08-09T03:08:57.960Z,100972.00
2022-08-09T03:12:04.629Z,100987.56
2022-08-09T03:14:16.005Z,100976.41
2022-08-09T03:16:47.460Z,100990.72
2022-08-09T03:19:59.653Z,100995.13
2022-08-09T03:22:11.944Z,101004.63
2022-08-09T03:25:06.542Z,100996.28
2022-08-09T03:27:48.622Z,100996.69
2022-08-09T03:30:29.814Z,100997.84
2022-08-09T03:33:17.768Z,100997.50
2022-08-09T03:36:13.570Z,100995.50
2022-08-09T03:38:41.934Z,100997.06
2022-08-09T03:41:15.567Z,100994.69
2022-08-09T03:44:02.981Z,101008.22
2022-08-09T03:46:32.555Z,101010.63
2022-08-09T03:49:04.350Z,101008.63
2022-08-09T03:51:43.632Z,101005.38
2022-08-09T03:54:29.456Z,101003.81
2022-08-09T03:57:00.513Z,101005.38
2022-08-09T03:59:53.905Z,101007.34
2022-08-09T04:02:15.347Z,101005.34
2022-08-09T04:04:54.312Z,101007.34
2022-08-09T04:07:21.597Z,101002.59
2022-08-09T04:09:50.200Z,101004.59
2022-08-09T04:12:36.478Z,101009.38
2022-08-09T04:15:17.084Z,101011.00
2022-08-09T04:17:51.306Z,101007.44
2022-08-09T04:20:19.295Z,101018.56
2022-08-09T04:22:47.485Z,101021.41
2022-08-09T04:25:17.678Z,101022.56
2022-08-09T04:27:49.138Z,101028.56
2022-08-09T04:30:23.511Z,101023.41
2022-08-09T04:32:54.201Z,101025.78
2022-08-09T04:35:21.822Z,101029.00
2022-08-09T04:37:49.950Z,101026.63
2022-08-09T04:40:18.962Z,101023.06
2022-08-09T04:42:48.616Z,101027.06
2022-08-09T04:45:20.379Z,101031.84
2022-08-09T04:48:01.123Z,101037.03
2022-08-09T04:50:34.822Z,101035.06
2022-08-09T04:53:02.987Z,101043.81
2022-08-09T04:55:39.044Z,101033.84
2022-08-09T04:58:18.530Z,101038.63
2022-08-09T05:00:46.491Z,101033.44
2022-08-09T05:03:40.034Z,101050.59
2022-08-09T05:06:07.031Z,101044.50
2022-08-09T05:08:36.060Z,101047.78
2022-08-09T05:11:07.463Z,101051.66
2022-08-09T05:13:38.943Z,101052.78
2022-08-09T05:16:10.505Z,101054.84
2022-08-09T05:18:58.127Z,101052.81
2022-08-09T05:21:30.519Z,101062.34
2022-08-09T05:24:12.229Z,101062.03
2022-08-09T05:26:46.068Z,101054.00
2022-08-09T05:29:24.488Z,101060.03
2022-08-09T05:32:02.107Z,101065.69
2022-08-09T05:34:32.564Z,101072.13
2022-08-09T05:37:04.939Z,101071.63
2022-08-09T05:39:42.474Z,101064.44
2022-08-09T05:42:21.422Z,101067.38
2022-08-09T05:44:54.309Z,101063.06
2022-08-09T05:47:22.566Z,101069.75
2022-08-09T05:50:24.324Z,101066.09
2022-08-09T05:52:42.842Z,101073.34
2022-08-09T05:55:18.189Z,101067.03
2022-08-09T05:57:56.145Z,101081.22
2022-08-09T06:00:29.720Z,101078.38
2022-08-09T06:03:02.616Z,101079.38
2022-08-09T06:05:57.143Z,101085.50
2022-08-09T06:08:24.249Z,101082.78
2022-08-09T06:10:54.148Z,101086.44
2022-08-09T06:13:22.047Z,101091.38
2022-08-09T06:15:51.824Z,101094.78
2022-08-09T06:18:24.824Z,101101.34
2022-08-09T06:20:57.360Z,101100.06
2022-08-09T06:23:55.116Z,101105.69
2022-08-09T06:26:20.545Z,101106.94
2022-08-09T06:29:00.710Z,101109.63
2022-08-09T06:31:39.842Z,101118.50
2022-08-09T06:34:22.519Z,101121.47
2022-08-09T06:36:59.523Z,101123.72
2022-08-09T06:39:48.544Z,101116.94
2022-08-09T06:42:24.405Z,101124.50
2022-08-09T06:44:54.563Z,101119.22
2022-08-09T06:47:22.473Z,101124.38
2022-08-09T06:50:13.404Z,101127.75
2022-08-09T06:52:46.933Z,101130.03
2022-08-09T06:55:22.908Z,101131.81
2022-08-09T06:58:02.571Z,101129.13
2022-08-09T07:00:51.633Z,101129.69
2022-08-09T07:03:19.031Z,101138.72
2022-08-09T07:05:58.548Z,101137.69
2022-08-09T07:08:31.630Z,101139.25
2022-08-09T07:10:58.739Z,101148.47
2022-08-09T07:13:28.123Z,101142.66
2022-08-09T07:16:42.302Z,101143.38
2022-08-09T07:18:44.639Z,101136.94
2022-08-09T07:21:16.353Z,101142.88
2022-08-09T07:23:56.357Z,101135.91
2022-08-09T07:26:25.726Z,101143.94
2022-08-09T07:29:08.473Z,101144.72
2022-08-09T07:31:45.420Z,101140.22
2022-08-09T07:34:19.531Z,101142.31
2022-08-09T07:36:49.503Z,101143.59
2022-08-09T07:39:19.747Z,101146.06
2022-08-09T07:41:48.342Z,101139.41
2022-08-09T07:44:15.518Z,101141.22
2022-08-09T07:46:43.045Z,101140.19
2022-08-09T07:49:15.294Z,101139.63
2022-08-09T07:52:06.048Z,101142.88
2022-08-09T07:54:31.806Z,101141.19
2022-08-09T07:56:58.993Z,101142.59
2022-08-09T07:59:45.479Z,101145.28
2022-08-09T08:02:13.547Z,101145.41
2022-08-09T08:04:48.745Z,101137.69
2022-08-09T08:08:42.978Z,101143.56
2022-08-09T08:10:07.861Z,101143.50
2022-08-09T08:12:43.743Z,101149.22
2022-08-09T08:15:16.443Z,101149.28
2022-08-09T08:17:52.992Z,101146.75
2022-08-09T08:20:30.801Z,101151.69
2022-08-09T08:23:06.958Z,101149.19
2022-08-09T08:25:48.297Z,101151.00
2022-08-09T08:28:31.909Z,101156.19
2022-08-09T08:31:04.671Z,101149.56
2022-08-09T08:33:52.054Z,101152.53
2022-08-09T08:36:28.470Z,101161.81
2022-08-09T08:38:57.244Z,101148.19
2022-08-09T08:41:24.797Z,101155.31
2022-08-09T08:44:09.835Z,101153.38
2022-08-09T08:47:02.439Z,101150.81
2022-08-09T08:49:47.250Z,101153.94
2022-08-09T08:55:15.367Z,101154.38
2022-08-09T08:57:56.348Z,101155.31
2022-08-09T09:00:27.342Z,101149.19
2022-08-09T09:03:11.485Z,101139.59
2022-08-09T09:05:59.821Z,101142.44
2022-08-09T09:08:52.349Z,101150.47
2022-08-09T09:11:20.805Z,101147.59
2022-08-09T09:13:56.554Z,101141.97
2022-08-09T09:16:34.549Z,101151.31
2022-08-09T09:22:00.618Z,101142.88
2022-08-09T09:24:33.194Z,101144.00
2022-08-09T09:27:03.446Z,101143.66
2022-08-09T09:29:45.973Z,101144.78
2022-08-09T09:32:34.644Z,101142.84
2022-08-09T09:35:07.497Z,101147.53
2022-08-09T09:37:40.660Z,101141.19
2022-08-09T09:40:11.613Z,101145.84
2022-08-09T09:42:39.489Z,101141.09
2022-08-09T09:45:10.570Z,101153.13
2022-08-09T09:47:56.215Z,101143.53
2022-08-09T09:50:55.954Z,101138.72
2022-08-09T09:53:57.881Z,101151.91
2022-08-09T09:56:20.134Z,101145.00
2022-08-09T09:58:59.589Z,101151.22
2022-08-09T10:01:31.544Z,101152.69
2022-08-09T10:04:30.930Z,101149.53
2022-08-09T10:07:03.267Z,101151.84
2022-08-09T10:09:54.794Z,101136.41
2022-08-09T10:12:43.611Z,101141.22
2022-08-09T10:15:51.113Z,101143.13
2022-08-09T10:18:11.864Z,101140.19
2022-08-09T10:20:45.072Z,101145.22
2022-08-09T10:23:20.039Z,101140.97
2022-08-09T10:26:06.307Z,101136.81
2022-08-09T10:28:37.455Z,101125.34
2022-08-09T10:32:27.560Z,101130.09
2022-08-09T10:34:09.658Z,101119.97
2022-08-09T10:36:42.082Z,101120.28
2022-08-09T10:39:13.983Z,101118.97
2022-08-09T10:41:47.832Z,101113.22
2022-08-09T10:44:23.308Z,101112.91
2022-08-09T10:46:57.441Z,101099.00
2022-08-09T10:49:54.232Z,101096.72
2022-08-09T10:52:56.722Z,101090.91
2022-08-09T10:55:35.771Z,101091.63
2022-08-09T10:58:34.752Z,101084.09
2022-08-09T11:03:06.676Z,101079.34
2022-08-09T11:04:19.672Z,101076.56
2022-08-09T11:07:00.226Z,101080.38
2022-08-09T11:09:56.180Z,101089.84
2022-08-09T11:12:29.948Z,101091.88
2022-08-09T11:15:23.971Z,101095.56
2022-08-09T11:18:02.899Z,101097.28
2022-08-09T11:20:45.674Z,101101.44
2022-08-09T11:23:13.884Z,101100.50
2022-08-09T11:25:47.880Z,101098.66
2022-08-09T11:28:54.457Z,101099.88
2022-08-09T11:31:43.293Z,101094.78
2022-08-09T11:34:35.484Z,101099.88
2022-08-09T11:37:07.196Z,101106.28
2022-08-09T11:40:02.905Z,101104.63
2022-08-09T11:42:49.329Z,101102.53
2022-08-09T11:45:37.658Z,101106.03
2022-08-09T11:48:19.502Z,101103.84
2022-08-09T11:52:53.989Z,101100.63
2022-08-09T11:54:13.817Z,101092.75
2022-08-09T11:56:48.493Z,101094.94
2022-08-09T11:59:34.117Z,101096.84
2022-08-09T12:02:17.502Z,101097.97
2022-08-09T12:04:54.724Z,101097.91
2022-08-09T12:07:34.465Z,101088.53
2022-08-09T12:10:38.038Z,101093.97
2022-08-09T12:12:58.610Z,101095.56
2022-08-09T12:15:48.836Z,101079.09
2022-08-09T12:18:25.928Z,101092.53
2022-08-09T12:20:59.300Z,101086.69
2022-08-09T12:23:57.892Z,101090.41
2022-08-09T12:26:25.327Z,101090.19
2022-08-09T12:29:14.710Z,101096.31
2022-08-09T12:31:59.013Z,101089.63
2022-08-09T12:34:39.837Z,101083.06
2022-08-09T12:37:21.824Z,101077.25
2022-08-09T12:40:27.507Z,101078.81
2022-08-09T12:42:56.315Z,101075.44
2022-08-09T12:45:33.797Z,101076.97
2022-08-09T12:48:19.804Z,101071.81
2022-08-09T12:50:55.850Z,101068.22
2022-08-09T12:53:36.711Z,101064.03
2022-08-09T12:56:39.857Z,101060.91
2022-08-09T12:59:15.663Z,101061.34
2022-08-09T13:01:49.716Z,101071.72
2022-08-09T13:04:33.207Z,101085.19
2022-08-09T13:07:19.313Z,101096.00
2022-08-09T13:09:55.807Z,101092.59
2022-08-09T13:12:29.532Z,101107.28
2022-08-09T13:15:08.343Z,101099.91
2022-08-09T13:18:02.491Z,101107.63
2022-08-09T13:20:37.214Z,101102.34
2022-08-09T13:24:44.578Z,101111.69
2022-08-09T13:26:06.456Z,101119.75
2022-08-09T13:28:39.447Z,101120.16
2022-08-09T13:32:16.050Z,101128.09
2022-08-09T13:33:57.566Z,101125.88
2022-08-09T13:36:41.032Z,101133.69
2022-08-09T13:41:21.288Z,101143.66
2022-08-09T13:42:12.548Z,101140.13
2022-08-09T13:44:42.788Z,101132.75
2022-08-09T13:47:33.097Z,101132.06
2022-08-09T13:50:01.806Z,101124.56
2022-08-09T13:52:30.837Z,101105.84
2022-08-09T13:55:01.752Z,101104.47
2022-08-09T13:57:40.313Z,101108.41
2022-08-09T14:00:15.465Z,101114.06
2022-08-09T14:03:03.277Z,101109.16
2022-08-09T14:05:59.082Z,101099.59
2022-08-09T14:08:21.721Z,101103.66
2022-08-09T14:10:52.689Z,101106.53
2022-08-09T14:13:28.364Z,101101.00
2022-08-09T14:16:15.611Z,101091.94
2022-08-09T14:18:49.062Z,101091.22
2022-08-09T14:21:20.426Z,101093.22
2022-08-09T14:23:53.684Z,101095.59
2022-08-09T14:26:32.046Z,101104.78
2022-08-09T14:29:03.455Z,101111.19
2022-08-09T14:31:52.256Z,101110.00
2022-08-09T14:34:32.435Z,101102.03
2022-08-09T14:37:07.904Z,101098.53
2022-08-09T14:39:45.743Z,101102.31
2022-08-09T14:42:30.134Z,101102.75
2022-08-09T14:46:40.562Z,101111.59
2022-08-09T14:47:57.423Z,101105.19
2022-08-09T14:50:28.905Z,101101.63
2022-08-09T14:52:56.663Z,101110.41
2022-08-09T14:55:25.035Z,101116.41
2022-08-09T14:57:52.304Z,101114.00
2022-08-09T15:00:22.477Z,101110.03
2022-08-09T15:02:51.862Z,101119.19
2022-08-09T15:05:20.392Z,101127.56
2022-08-09T15:07:56.132Z,101139.53
2022-08-09T15:10:31.580Z,101143.88
2022-08-09T15:13:03.163Z,101140.25
2022-08-09T15:15:34.504Z,101138.66
2022-08-09T15:18:13.989Z,101136.28
2022-08-09T15:21:57.883Z,101154.28
2022-08-09T15:24:01.493Z,101161.44
2022-08-09T15:26:31.386Z,101139.97
2022-08-09T15:29:04.268Z,101142.91
2022-08-09T15:31:40.748Z,101125.38
2022-08-09T15:34:32.957Z,101134.91
2022-08-09T15:36:56.026Z,101131.72
2022-08-09T15:39:34.844Z,101126.13
2022-08-09T15:42:14.825Z,101127.31
2022-08-09T15:44:42.400Z,101118.50
2022-08-09T15:47:14.536Z,101117.34
2022-08-09T15:50:03.876Z,101108.13
2022-08-09T15:52:34.025Z,101106.91
2022-08-09T15:55:02.382Z,101098.91
2022-08-09T15:57:35.982Z,101110.84
2022-08-09T16:00:26.742Z,101108.44
2022-08-09T16:02:56.193Z,101102.84
2022-08-09T16:05:47.301Z,101108.44
2022-08-09T16:08:30.459Z,101128.81
2022-08-09T16:11:03.403Z,101129.63
2022-08-09T16:14:03.695Z,101118.44
2022-08-09T16:16:20.042Z,101117.22
2022-08-09T16:18:53.511Z,101106.47
2022-08-09T16:21:25.559Z,101107.66
2022-08-09T16:23:55.578Z,101114.00
2022-08-09T16:26:33.891Z,101106.44
2022-08-09T16:29:11.068Z,101102.00
2022-08-09T16:32:19.132Z,101094.03
2022-08-09T16:34:54.556Z,101102.03
2022-08-09T16:37:54.889Z,101103.56
2022-08-09T16:40:29.692Z,101101.19
2022-08-09T16:43:04.974Z,101103.94
2022-08-09T16:45:32.961Z,101097.13
2022-08-09T16:48:41.538Z,101111.84
2022-08-09T16:50:58.718Z,101099.06
2022-08-09T16:53:34.275Z,101087.84
2022-08-09T16:56:09.351Z,101091.81
2022-08-09T16:58:49.946Z,101081.78
2022-08-09T17:01:19.503Z,101076.53
2022-08-09T17:03:51.166Z,101063.28
2022-08-09T17:06:29.106Z,101054.47
2022-08-09T17:09:17.537Z,101044.88
2022-08-09T17:11:52.665Z,101034.44
2022-08-09T17:14:27.588Z,101036.41
2022-08-09T17:17:01.316Z,101023.63
2022-08-09T17:19:47.185Z,101035.97
2022-08-09T17:22:34.028Z,101018.78
2022-08-09T17:25:10.227Z,101020.78
2022-08-09T17:27:49.303Z,101012.50
2022-08-09T17:30:22.565Z,101005.34
2022-08-09T17:32:53.436Z,100989.88
2022-08-09T17:35:20.726Z,100989.88
2022-08-09T17:38:02.333Z,100985.06
2022-08-09T17:40:35.952Z,100978.69
2022-08-09T17:43:32.025Z,100979.53
2022-08-09T17:46:04.247Z,100971.97
2022-08-09T17:48:40.262Z,100965.97
2022-08-09T17:51:18.149Z,100966.38
2022-08-09T17:53:52.159Z,100969.59
2022-08-09T17:56:28.819Z,100958.47
2022-08-09T17:59:03.216Z,100964.47
2022-08-09T18:02:06.144Z,100949.75
2022-08-09T18:04:23.556Z,100957.00
2022-08-09T18:06:55.216Z,100955.06
2022-08-09T18:09:40.011Z,100955.09
2022-08-09T18:12:17.173Z,100950.78
2022-08-09T18:14:57.330Z,100960.84
2022-08-09T18:17:27.400Z,100956.88
2022-08-09T18:20:59.575Z,100968.09
2022-08-09T18:23:05.681Z,100971.31
2022-08-09T18:25:50.272Z,100971.75
2022-08-09T18:30:42.517Z,100968.19
2022-08-09T18:31:12.286Z,100975.81
2022-08-09T18:33:40.343Z,100985.81
2022-08-09T18:36:14.154Z,100988.59
2022-08-09T18:38:55.142Z,101004.53
2022-08-09T18:41:27.765Z,101003.75
2022-08-09T18:43:55.078Z,101008.16
2022-08-09T18:46:49.451Z,101009.00
2022-08-09T18:49:10.834Z,101014.59
2022-08-09T18:51:54.558Z,101032.91
2022-08-09T18:54:29.583Z,101051.63
2022-08-09T18:57:05.136Z,101060.00
2022-08-09T18:59:37.286Z,101052.03
2022-08-09T19:02:15.926Z,101052.50
2022-08-09T19:04:43.279Z,101075.69
2022-08-09T19:07:16.295Z,101076.47
2022-08-09T19:10:14.485Z,101068.44
2022-08-09T19:12:37.614Z,101084.75
2022-08-09T19:15:07.082Z,101089.88
2022-08-09T19:17:54.841Z,101102.94
2022-08-09T19:20:24.033Z,101099.28
2022-08-09T19:22:54.432Z,101106.38
2022-08-09T19:25:41.646Z,101119.91
2022-08-09T19:28:13.109Z,101129.41
2022-08-09T19:30:44.268Z,101133.69
2022-08-09T19:33:19.313Z,101119.31
2022-08-09T19:35:57.594Z,101127.25
2022-08-09T19:38:27.851Z,101125.50
2022-08-09T19:40:59.700Z,101120.28
2022-08-09T19:44:01.498Z,101127.84
2022-08-09T19:46:15.097Z,101131.03
2022-08-09T19:49:01.759Z,101136.53
2022-08-09T19:51:30.749Z,101145.25
2022-08-09T19:54:01.506Z,101148.38
2022-08-09T19:56:29.890Z,101152.31
2022-08-09T19:59:39.599Z,101145.13
2022-08-09T20:02:05.248Z,101154.16
2022-08-09T20:04:40.791Z,101160.47
2022-08-09T20:07:15.999Z,101161.72
2022-08-09T20:09:49.119Z,101154.53
2022-08-09T20:12:29.970Z,101146.59
2022-08-09T20:16:31.791Z,101153.75
2022-08-09T20:17:54.714Z,101167.25
2022-08-09T20:20:24.625Z,101166.06
2022-08-09T20:22:56.489Z,101162.91
2022-08-09T20:25:25.338Z,101159.00
2022-08-09T20:27:52.598Z,101161.00
2022-08-09T20:30:23.750Z,101165.41
2022-08-09T20:32:52.460Z,101161.88
2022-08-09T20:35:21.576Z,101172.22
2022-08-09T20:38:21.172Z,101163.13
2022-08-09T20:40:36.356Z,101160.34
2022-08-09T20:43:18.493Z,101175.47
2022-08-09T20:45:59.497Z,101169.50
2022-08-09T20:48:31.048Z,101167.13
2022-08-09T20:50:59.882Z,101181.81
2022-08-09T20:53:36.867Z,101183.00
2022-08-09T20:56:20.743Z,101173.06
2022-08-09T20:58:54.627Z,101177.09
2022-08-09T21:01:34.012Z,101176.34
2022-08-09T21:05:52.071Z,101183.09
2022-08-09T21:07:12.534Z,101178.69
2022-08-09T21:09:55.707Z,101176.75
2022-08-09T21:15:15.231Z,101166.03
2022-08-09T21:18:11.773Z,101174.81
2022-08-09T21:20:31.772Z,101165.69
2022-08-09T21:23:00.451Z,101164.50
2022-08-09T21:25:55.436Z,101161.72
2022-08-09T21:28:35.058Z,101149.81
2022-08-09T21:31:13.510Z,101147.50
2022-08-09T21:33:52.156Z,101137.97
2022-08-09T21:36:28.935Z,101142.41
2022-08-09T21:38:59.173Z,101132.09
2022-08-09T21:42:04.739Z,101131.31
2022-08-09T21:44:34.045Z,101132.53
2022-08-09T21:47:07.967Z,101147.22
2022-08-09T21:49:39.858Z,101141.69
2022-08-09T21:52:16.408Z,101132.56
2022-08-09T21:55:03.147Z,101137.72
2022-08-09T21:57:39.148Z,101131.38
2022-08-09T22:00:32.304Z,101128.22
2022-08-09T22:03:04.811Z,101126.25
2022-08-09T22:05:36.974Z,101122.69
2022-08-09T22:08:13.771Z,101124.69
2022-08-09T22:11:26.474Z,101129.06
2022-08-09T22:13:35.476Z,101131.44
2022-08-09T22:16:08.293Z,101125.84
2022-08-09T22:18:38.632Z,101117.50
2022-08-09T22:21:24.173Z,101112.34
2022-08-09T22:24:01.570Z,101117.94
2022-08-09T22:26:35.562Z,101111.59
2022-08-09T22:29:09.461Z,101109.59
2022-08-09T22:31:50.368Z,101113.16
2022-08-09T22:34:25.574Z,101103.63
2022-08-09T22:36:54.124Z,101103.28
2022-08-09T22:39:57.412Z,101103.28
2022-08-09T22:42:21.483Z,101089.34
2022-08-09T22:45:11.578Z,101086.56
2022-08-09T22:48:16.603Z,101094.13
2022-08-09T22:50:29.859Z,101103.28
2022-08-09T22:52:58.651Z,101103.28
2022-08-09T22:55:33.775Z,101106.84
2022-08-09T22:58:20.200Z,101106.84
2022-08-09T23:00:57.973Z,101094.53
2022-08-09T23:03:31.180Z,101090.16
2022-08-09T23:06:14.281Z,101089.69
2022-08-09T23:08:44.517Z,101081.34
2022-08-09T23:11:21.245Z,101088.91
2022-08-09T23:13:53.559Z,101084.53
2022-08-09T23:16:23.099Z,101090.16
2022-08-09T23:18:50.251Z,101087.00
2022-08-09T23:21:24.509Z,101094.16
2022-08-09T23:24:05.722Z,101094.94
2022-08-09T23:26:38.558Z,101090.16
2022-08-09T23:29:07.521Z,101089.69
2022-08-09T23:31:34.709Z,101083.00
2022-08-09T23:34:02.649Z,101082.53
2022-08-09T23:36:31.219Z,101081.34
2022-08-09T23:38:58.384Z,101086.56
2022-08-09T23:41:27.577Z,101074.25
2022-08-09T23:43:57.994Z,101082.59
2022-08-09T23:46:25.094Z,101086.19
2022-08-09T23:48:52.275Z,101080.63
2022-08-09T23:51:19.379Z,101078.66
2022-08-09T23:53:47.342Z,101068.69
2022-08-09T23:56:18.222Z,101069.47
2022-08-09T23:59:05.111Z,101073.47
